Time;durP1;ratioP1;P1;durP2;ratioP2;P2;SDS_P1;SDS_P2;PMS_P1;PMS_P2;Temp;Humidity;BMP_temperature;BMP_pressure;BME280_temperature;BME280_humidity;BME280_pressure;Samples;Min_cycle;Max_cycle;Signal;HPM_P1;HPM_P2
2022/11/29 00:01:29;;;;;;;28.60;18.20;;;10.10;99.90;;;;;;5031541;28;20172;-84
2022/11/29 00:03:58;;;;;;;33.17;19.77;;;9.90;99.90;;;;;;5030845;28;20178;-86
2022/11/29 00:06:30;;;;;;;34.83;19.50;;;10.00;99.90;;;;;;5013242;28;20220;-83
2022/11/29 00:09:05;;;;;;;31.63;19.10;;;9.90;99.90;;;;;;5031643;28;20170;-85
2022/11/29 00:14:24;;;;;;;31.07;19.13;;;9.80;99.90;;;;;;5040200;28;20176;-84
2022/11/29 00:17:00;;;;;;;34.07;18.73;;;9.80;99.90;;;;;;5023114;28;20242;-85
2022/11/29 00:19:33;;;;;;;30.57;19.13;;;9.60;99.90;;;;;;5022796;28;20173;-83
2022/11/29 00:21:59;;;;;;;30.23;19.33;;;9.40;99.90;;;;;;5040065;28;20202;-84
2022/11/29 00:24:25;;;;;;;28.80;18.40;;;9.20;99.90;;;;;;5039790;28;20214;-85
2022/11/29 00:26:51;;;;;;;28.70;18.77;;;9.20;99.90;;;;;;5022884;28;20205;-85
2022/11/29 00:29:17;;;;;;;36.17;18.63;;;9.10;99.90;;;;;;5006501;28;20226;-86
2022/11/29 00:31:45;;;;;;;32.07;18.70;;;9.10;99.90;;;;;;5020469;28;20170;-85
2022/11/29 00:34:35;;;;;;;29.27;18.10;;;9.10;99.90;;;;;;5021557;28;20257;-86
2022/11/29 00:37:01;;;;;;;28.67;18.60;;;9.20;99.90;;;;;;5039763;28;20153;-85
2022/11/29 00:39:26;;;;;;;30.93;19.07;;;9.20;99.90;;;;;;5039285;28;20179;-84
2022/11/29 00:42:23;;;;;;;31.97;19.17;;;9.20;99.90;;;;;;5015450;28;20174;-84
2022/11/29 00:45:24;;;;;;;32.57;18.47;;;9.20;99.90;;;;;;5024309;28;20210;-86
2022/11/29 00:48:03;;;;;;;26.07;17.93;;;9.30;99.90;;;;;;5023438;28;20162;-86
2022/11/29 00:50:28;;;;;;;31.93;19.23;;;9.20;99.90;;;;;;5022070;28;20168;-87
2022/11/29 00:52:59;;;;;;;29.47;18.87;;;9.00;99.90;;;;;;4989568;28;20217;-85
2022/11/29 00:55:40;;;;;;;29.23;18.60;;;9.00;99.90;;;;;;5024512;28;20163;-84
2022/11/29 00:58:05;;;;;;;29.23;19.10;;;9.20;99.90;;;;;;5030952;28;20643;-85
2022/11/29 01:00:32;;;;;;;29.43;19.83;;;9.10;99.90;;;;;;5031479;28;20182;-86
2022/11/29 01:02:59;;;;;;;28.30;19.13;;;9.20;99.90;;;;;;5021831;28;20174;-86
2022/11/29 01:05:24;;;;;;;28.43;18.50;;;9.20;99.90;;;;;;5013375;28;20236;-85
2022/11/29 01:07:50;;;;;;;27.60;19.03;;;9.20;99.90;;;;;;5010972;28;20166;-87
2022/11/29 01:10:18;;;;;;;31.20;19.33;;;9.10;99.90;;;;;;5025590;28;20170;-86
2022/11/29 01:12:45;;;;;;;29.83;20.50;;;9.00;99.90;;;;;;5008255;28;20619;-85
2022/11/29 01:15:11;;;;;;;28.73;19.43;;;9.10;99.90;;;;;;5013719;28;20189;-86
2022/11/29 01:17:39;;;;;;;33.07;20.93;;;8.90;99.90;;;;;;5028386;28;20162;-85
2022/11/29 01:20:06;;;;;;;28.73;20.07;;;9.10;99.90;;;;;;5010096;28;20171;-84
2022/11/29 01:22:33;;;;;;;30.90;20.07;;;9.00;99.90;;;;;;5025535;28;20261;-85
2022/11/29 01:24:59;;;;;;;27.17;19.43;;;8.80;99.90;;;;;;5024503;28;20218;-86
2022/11/29 01:27:25;;;;;;;29.83;19.87;;;8.60;99.90;;;;;;5031260;28;20173;-87
2022/11/29 01:29:50;;;;;;;31.03;21.10;;;8.50;99.90;;;;;;5013734;28;20182;-86
2022/11/29 01:32:16;;;;;;;29.40;20.03;;;8.50;99.90;;;;;;5030337;28;20197;-85
2022/11/29 01:34:42;;;;;;;30.83;21.53;;;8.70;99.90;;;;;;5030289;28;20174;-86
2022/11/29 01:37:07;;;;;;;29.00;21.53;;;8.60;99.90;;;;;;5014295;28;20531;-85
2022/11/29 01:39:33;;;;;;;29.83;20.20;;;8.50;99.90;;;;;;5026773;28;20237;-83
2022/11/29 01:41:59;;;;;;;29.87;19.93;;;8.40;99.90;;;;;;5028956;28;20181;-86
2022/11/29 01:44:31;;;;;;;27.47;19.90;;;8.30;99.90;;;;;;5019342;28;20206;-85
2022/11/29 01:46:57;;;;;;;26.87;18.60;;;8.40;99.90;;;;;;5015959;28;20234;-86
2022/11/29 01:49:47;;;;;;;28.37;20.30;;;8.40;99.90;;;;;;5006716;28;20592;-85
2022/11/29 01:52:26;;;;;;;27.67;19.27;;;8.60;99.90;;;;;;5019720;28;20177;-87
2022/11/29 01:54:58;;;;;;;28.33;18.60;;;8.60;99.90;;;;;;4998559;28;20221;-85
2022/11/29 01:57:25;;;;;;;30.70;18.37;;;8.60;99.90;;;;;;5016592;28;20232;-85
2022/11/29 01:59:55;;;;;;;28.23;19.37;;;8.50;99.90;;;;;;4998629;28;20728;-85
2022/11/29 02:02:28;;;;;;;25.70;18.27;;;8.40;99.90;;;;;;5016737;28;20612;-85
2022/11/29 02:04:56;;;;;;;25.00;18.03;;;8.10;99.90;;;;;;5016151;28;20198;-86
2022/11/29 02:07:22;;;;;;;24.67;18.43;;;8.20;99.90;;;;;;4999599;28;20257;-85
2022/11/29 02:09:48;;;;;;;27.70;19.10;;;8.30;99.90;;;;;;4999377;28;20205;-85
2022/11/29 02:12:33;;;;;;;25.93;18.40;;;8.20;99.90;;;;;;5017104;28;20182;-85
2022/11/29 02:15:13;;;;;;;24.77;17.70;;;8.20;99.90;;;;;;4999044;28;20181;-83
2022/11/29 02:17:57;;;;;;;25.23;17.87;;;8.20;99.90;;;;;;4998462;28;20182;-84
2022/11/29 02:20:58;;;;;;;24.13;16.90;;;8.10;99.90;;;;;;4998664;28;20627;-87
2022/11/29 02:23:46;;;;;;;22.20;16.47;;;8.00;99.90;;;;;;4998063;28;20182;-85
2022/11/29 02:26:39;;;;;;;20.90;16.60;;;7.90;99.90;;;;;;4999929;28;20218;-84
2022/11/29 02:29:23;;;;;;;23.87;16.20;;;7.80;99.90;;;;;;5001092;28;20182;-85
2022/11/29 02:32:24;;;;;;;23.97;16.90;;;7.80;99.90;;;;;;5002564;28;20170;-83
2022/11/29 02:35:14;;;;;;;22.70;16.70;;;8.00;99.90;;;;;;4921062;29;20196;-84
2022/11/29 02:38:24;;;;;;;26.10;18.23;;;8.10;99.90;;;;;;4997098;28;20559;-86
2022/11/29 02:41:01;;;;;;;25.70;18.07;;;8.20;99.90;;;;;;4973949;28;20201;-86
2022/11/29 02:43:45;;;;;;;25.83;17.80;;;8.20;99.90;;;;;;5007220;28;20202;-85
2022/11/29 02:46:26;;;;;;;20.97;17.10;;;8.10;99.90;;;;;;5019967;28;20232;-86
2022/11/29 02:49:08;;;;;;;21.07;17.47;;;8.00;99.90;;;;;;5019459;28;20167;-86
2022/11/29 02:52:01;;;;;;;18.17;15.40;;;8.00;99.90;;;;;;5019148;28;20174;-86
2022/11/29 02:54:53;;;;;;;19.07;15.33;;;8.00;99.90;;;;;;5004025;28;20270;-86
2022/11/29 02:57:49;;;;;;;22.50;16.23;;;8.20;99.90;;;;;;4999612;28;20190;-86
2022/11/29 03:00:19;;;;;;;22.53;17.20;;;8.20;99.90;;;;;;5006625;28;20527;-86
2022/11/29 03:03:02;;;;;;;23.67;17.27;;;8.20;99.90;;;;;;5019356;28;20170;-85
2022/11/29 03:05:52;;;;;;;24.50;17.80;;;8.20;99.90;;;;;;4999625;28;20212;-86
2022/11/29 03:08:36;;;;;;;21.23;16.83;;;8.10;99.90;;;;;;4999759;28;20191;-86
2022/11/29 03:11:29;;;;;;;24.33;17.20;;;8.00;99.90;;;;;;4983601;28;20182;-86
2022/11/29 03:14:24;;;;;;;20.40;15.77;;;8.00;99.90;;;;;;5011392;28;20171;-85
2022/11/29 03:17:14;;;;;;;22.27;16.67;;;8.10;99.90;;;;;;4983729;28;20182;-86
2022/11/29 03:19:59;;;;;;;20.23;15.57;;;8.00;99.90;;;;;;5004964;28;20190;-85
2022/11/29 03:22:44;;;;;;;21.00;15.30;;;8.00;99.90;;;;;;5001999;28;20186;-87
2022/11/29 03:25:30;;;;;;;23.90;16.30;;;8.10;99.90;;;;;;4999165;28;20210;-84
2022/11/29 03:28:23;;;;;;;20.63;15.93;;;8.20;99.90;;;;;;4998249;28;20175;-87
2022/11/29 03:31:02;;;;;;;20.00;16.33;;;8.30;99.90;;;;;;5001750;28;20213;-85
2022/11/29 03:33:53;;;;;;;19.30;15.50;;;8.20;99.90;;;;;;4999128;28;20186;-86
2022/11/29 03:36:41;;;;;;;21.47;16.93;;;8.30;99.90;;;;;;5016238;28;20159;-86
2022/11/29 03:39:16;;;;;;;20.97;16.10;;;8.40;99.90;;;;;;5017981;28;20170;-86
2022/11/29 03:41:52;;;;;;;17.40;15.37;;;8.30;99.90;;;;;;5016087;28;20281;-84
2022/11/29 03:44:24;;;;;;;18.50;15.77;;;8.20;99.90;;;;;;5023623;28;20166;-85
2022/11/29 03:46:58;;;;;;;15.40;13.73;;;8.20;99.90;;;;;;5020252;28;20202;-84
2022/11/29 03:49:24;;;;;;;17.40;15.33;;;8.20;99.90;;;;;;5033183;28;20166;-85
2022/11/29 03:52:15;;;;;;;16.30;14.67;;;8.20;99.90;;;;;;5004305;28;20178;-86
2022/11/29 03:55:02;;;;;;;16.87;13.90;;;8.30;99.90;;;;;;5004155;28;20212;-85
2022/11/29 03:57:41;;;;;;;16.70;13.63;;;8.40;99.90;;;;;;5007927;28;20198;-86
2022/11/29 04:00:15;;;;;;;16.20;13.53;;;8.40;99.90;;;;;;4979606;28;20179;-87
2022/11/29 04:02:55;;;;;;;18.97;14.67;;;8.50;99.90;;;;;;5014082;28;20173;-86
2022/11/29 04:05:40;;;;;;;16.10;13.87;;;8.50;99.90;;;;;;4999296;28;20208;-86
2022/11/29 04:08:21;;;;;;;19.27;13.87;;;8.50;99.90;;;;;;4999122;28;20206;-86
2022/11/29 04:11:04;;;;;;;16.60;13.57;;;8.50;99.90;;;;;;5018106;28;20206;-87
2022/11/29 04:13:42;;;;;;;17.27;13.93;;;8.50;99.90;;;;;;4980496;28;20258;-85
2022/11/29 04:16:26;;;;;;;16.63;12.77;;;8.40;99.90;;;;;;4980403;28;20651;-85
2022/11/29 04:19:26;;;;;;;15.10;12.90;;;8.50;99.90;;;;;;4979868;28;20171;-85
2022/11/29 04:22:28;;;;;;;14.97;12.43;;;8.50;99.90;;;;;;4982000;28;20179;-86
2022/11/29 04:25:15;;;;;;;15.63;12.63;;;8.40;99.90;;;;;;5018659;28;20202;-84
2022/11/29 04:28:16;;;;;;;14.90;13.33;;;8.40;99.90;;;;;;5017842;28;20163;-85
2022/11/29 04:31:24;;;;;;;15.77;12.97;;;8.50;99.90;;;;;;5033536;28;20193;-86
2022/11/29 04:34:01;;;;;;;13.43;12.03;;;8.50;99.90;;;;;;4937902;29;20205;-85
2022/11/29 04:36:45;;;;;;;13.77;12.13;;;8.40;99.90;;;;;;5026679;28;20178;-86
2022/11/29 04:39:36;;;;;;;13.77;11.67;;;8.50;99.90;;;;;;5031193;28;20170;-85
2022/11/29 04:42:50;;;;;;;16.60;12.00;;;8.50;99.90;;;;;;5016381;28;20182;-85
2022/11/29 04:45:52;;;;;;;16.87;12.20;;;8.50;99.90;;;;;;4998367;28;20308;-85
2022/11/29 04:48:27;;;;;;;14.00;11.77;;;8.40;99.90;;;;;;4998741;28;20657;-84
2022/11/29 04:51:17;;;;;;;14.67;12.17;;;8.30;99.90;;;;;;5026029;28;20174;-85
2022/11/29 04:53:52;;;;;;;15.20;11.50;;;8.30;99.90;;;;;;5024919;28;20281;-86
2022/11/29 04:57:06;;;;;;;15.30;12.70;;;8.40;99.90;;;;;;4998254;28;20556;-86
2022/11/29 04:59:56;;;;;;;15.03;12.63;;;8.50;99.90;;;;;;4927885;28;20193;-86
2022/11/29 05:02:32;;;;;;;16.47;12.73;;;8.60;99.90;;;;;;5015246;28;20170;-85
2022/11/29 05:05:35;;;;;;;15.33;13.03;;;8.50;99.90;;;;;;4997238;28;20217;-85
2022/11/29 05:08:19;;;;;;;14.47;11.97;;;8.30;99.90;;;;;;5014645;28;20228;-86
2022/11/29 05:11:14;;;;;;;15.73;12.50;;;8.10;99.90;;;;;;5015808;28;20178;-86
2022/11/29 05:13:59;;;;;;;13.67;12.03;;;8.00;99.90;;;;;;4997876;28;20169;-86
2022/11/29 05:16:52;;;;;;;16.17;13.13;;;8.20;99.90;;;;;;5016117;28;20166;-86
2022/11/29 05:19:32;;;;;;;15.30;12.27;;;8.30;99.90;;;;;;5014826;28;20178;-85
2022/11/29 05:22:19;;;;;;;15.37;12.30;;;8.30;99.90;;;;;;4995705;28;20175;-86
2022/11/29 05:25:21;;;;;;;15.23;12.13;;;8.40;99.90;;;;;;4977611;28;20272;-85
2022/11/29 05:27:49;;;;;;;12.77;11.40;;;8.50;99.90;;;;;;4902446;29;20188;-86
2022/11/29 05:30:23;;;;;;;12.73;11.37;;;8.50;99.90;;;;;;4964666;28;20183;-84
2022/11/29 05:32:57;;;;;;;12.67;10.97;;;8.30;99.90;;;;;;5004530;28;20215;-84
2022/11/29 05:35:44;;;;;;;11.60;10.37;;;8.20;99.90;;;;;;4987295;28;20171;-84
2022/11/29 05:38:37;;;;;;;11.97;10.77;;;8.00;99.90;;;;;;5012463;28;20212;-85
2022/11/29 05:41:41;;;;;;;13.30;10.90;;;8.10;99.90;;;;;;5008808;28;20535;-85
2022/11/29 05:44:18;;;;;;;12.03;10.20;;;8.10;99.90;;;;;;5017037;28;20243;-85
2022/11/29 05:46:55;;;;;;;13.30;10.80;;;8.10;99.90;;;;;;5014930;28;20236;-86
2022/11/29 05:49:58;;;;;;;12.17;10.23;;;8.00;99.90;;;;;;5015843;28;20224;-85
2022/11/29 05:52:54;;;;;;;13.47;10.57;;;7.80;99.90;;;;;;5015495;28;20646;-85
2022/11/29 05:55:43;;;;;;;13.30;10.50;;;7.90;99.90;;;;;;5015199;28;20174;-84
2022/11/29 05:58:21;;;;;;;13.60;10.70;;;8.00;99.90;;;;;;4996951;28;20234;-87
2022/11/29 06:01:00;;;;;;;16.17;10.80;;;8.00;99.90;;;;;;5016436;28;20174;-85
2022/11/29 06:03:37;;;;;;;14.43;11.70;;;8.00;99.90;;;;;;5019495;28;20214;-86
2022/11/29 06:06:24;;;;;;;15.23;11.63;;;8.00;99.90;;;;;;5003826;28;20240;-85
2022/11/29 06:09:11;;;;;;;17.33;11.57;;;8.10;99.90;;;;;;5013749;28;20541;-82
2022/11/29 06:11:44;;;;;;;14.67;10.87;;;8.00;99.90;;;;;;5017772;28;20206;-83
2022/11/29 06:14:41;;;;;;;17.20;11.40;;;7.80;99.90;;;;;;5034540;28;20215;-86
2022/11/29 06:17:26;;;;;;;20.20;15.40;;;7.90;99.90;;;;;;5004125;28;20198;-86
2022/11/29 06:20:13;;;;;;;16.57;11.83;;;8.00;99.90;;;;;;5009698;28;20170;-85
2022/11/29 06:23:03;;;;;;;15.10;11.33;;;8.00;99.90;;;;;;5025497;28;20234;-87
2022/11/29 06:25:55;;;;;;;18.77;11.77;;;8.20;99.90;;;;;;5018042;28;20194;-86
2022/11/29 06:28:42;;;;;;;14.00;11.60;;;8.30;99.90;;;;;;5015700;28;20171;-85
2022/11/29 06:31:28;;;;;;;14.30;12.13;;;8.30;99.90;;;;;;5025738;28;20595;-87
2022/11/29 06:34:11;;;;;;;14.73;11.10;;;8.50;99.90;;;;;;5002982;28;20194;-86
2022/11/29 06:36:43;;;;;;;15.77;12.17;;;8.50;99.90;;;;;;5002279;28;20601;-87
2022/11/29 06:39:11;;;;;;;12.87;11.43;;;8.50;99.90;;;;;;5019393;28;20171;-86
2022/11/29 06:41:43;;;;;;;14.50;11.83;;;8.50;99.90;;;;;;5019331;28;20205;-87
2022/11/29 06:44:09;;;;;;;12.77;11.47;;;8.50;99.90;;;;;;5022684;28;20167;-86
2022/11/29 06:47:02;;;;;;;16.87;11.97;;;8.60;99.90;;;;;;5030999;28;20202;-85
2022/11/29 06:49:51;;;;;;;14.30;11.07;;;8.50;99.90;;;;;;5011445;28;20236;-86
2022/11/29 06:52:57;;;;;;;14.30;10.10;;;8.60;99.90;;;;;;5004087;28;20579;-85
2022/11/29 06:55:55;;;;;;;14.40;10.67;;;8.50;99.90;;;;;;4992168;28;20183;-85
2022/11/29 06:58:59;;;;;;;14.67;10.70;;;8.60;99.90;;;;;;5010634;28;20174;-85
2022/11/29 07:01:40;;;;;;;14.63;11.43;;;8.70;99.90;;;;;;5019747;28;20328;-84
2022/11/29 07:04:23;;;;;;;15.53;11.80;;;8.80;99.90;;;;;;5019610;28;20212;-82
2022/11/29 07:06:49;;;;;;;17.30;11.83;;;8.80;99.90;;;;;;5033115;28;20189;-85
2022/11/29 07:09:18;;;;;;;22.13;11.87;;;8.70;98.80;;;;;;5038689;28;20171;-84
2022/11/29 07:11:45;;;;;;;18.47;11.73;;;8.60;99.40;;;;;;5037163;28;20170;-80
2022/11/29 07:14:11;;;;;;;16.87;12.07;;;8.50;99.40;;;;;;5011608;28;20186;-78
2022/11/29 07:16:55;;;;;;;15.40;11.53;;;8.50;99.80;;;;;;5002959;28;20205;-84
2022/11/29 07:19:45;;;;;;;16.03;11.80;;;8.30;99.90;;;;;;5006677;28;20265;-84
2022/11/29 07:22:51;;;;;;;19.57;12.30;;;8.00;99.90;;;;;;5004029;28;20178;-81
2022/11/29 07:25:33;;;;;;;19.23;12.57;;;8.10;99.90;;;;;;5010718;28;20624;-85
2022/11/29 07:28:24;;;;;;;17.53;11.80;;;8.00;99.90;;;;;;5025752;28;20201;-83
2022/11/29 07:31:02;;;;;;;16.90;11.80;;;7.80;99.90;;;;;;4988200;28;20269;-80
2022/11/29 07:33:47;;;;;;;17.33;11.93;;;7.70;99.90;;;;;;5025087;28;20261;-79
2022/11/29 07:36:36;;;;;;;17.83;11.57;;;7.60;99.90;;;;;;5026538;28;20166;-83
2022/11/29 07:39:05;;;;;;;16.50;11.20;;;7.50;99.90;;;;;;5025029;28;20216;-85
2022/11/29 07:41:38;;;;;;;15.93;12.13;;;7.40;99.90;;;;;;5007062;28;20206;-82
2022/11/29 07:44:23;;;;;;;17.40;11.93;;;7.70;99.90;;;;;;5027744;28;20237;-84
2022/11/29 07:46:48;;;;;;;17.03;12.27;;;7.70;99.90;;;;;;5006554;28;20285;-84
2022/11/29 07:49:14;;;;;;;22.83;14.30;;;7.70;99.90;;;;;;5026917;28;20170;-85
2022/11/29 07:51:41;;;;;;;27.93;14.10;;;7.80;99.90;;;;;;5028123;28;20167;-85
2022/11/29 07:54:09;;;;;;;44.23;15.80;;;7.70;99.90;;;;;;5023525;28;20182;-86
2022/11/29 07:56:49;;;;;;;47.53;15.13;;;7.60;99.90;;;;;;5027285;28;20183;-87
2022/11/29 07:59:16;;;;;;;55.43;15.63;;;7.60;99.90;;;;;;5008685;28;20177;-86
2022/11/29 08:01:43;;;;;;;65.07;16.17;;;7.50;99.90;;;;;;5008345;28;20181;-84
2022/11/29 08:04:09;;;;;;;36.40;14.17;;;7.40;99.90;;;;;;5009316;28;20198;-85
2022/11/29 08:06:37;;;;;;;56.27;16.67;;;7.30;99.90;;;;;;5009298;28;20242;-86
2022/11/29 08:09:03;;;;;;;55.70;14.43;;;7.10;99.90;;;;;;5028725;28;20151;-85
2022/11/29 08:11:30;;;;;;;35.47;12.77;;;7.10;99.90;;;;;;5026505;28;20182;-85
2022/11/29 08:13:57;;;;;;;34.07;12.67;;;7.10;99.90;;;;;;5028921;28;20166;-86
2022/11/29 08:16:23;;;;;;;31.13;12.17;;;7.00;99.90;;;;;;5011964;28;20174;-84
2022/11/29 08:18:49;;;;;;;52.73;13.17;;;7.10;99.90;;;;;;5017827;28;20158;-85
2022/11/29 08:21:19;;;;;;;55.17;13.70;;;6.90;99.90;;;;;;5000901;28;20154;-85
2022/11/29 08:23:46;;;;;;;62.40;14.27;;;7.10;99.90;;;;;;5032363;28;20668;-85
2022/11/29 08:26:28;;;;;;;44.43;11.70;;;6.80;99.90;;;;;;5017404;28;20210;-86
2022/11/29 08:28:53;;;;;;;32.80;12.37;;;7.00;99.90;;;;;;5009309;28;20159;-84
2022/11/29 08:31:20;;;;;;;60.60;13.57;;;6.90;99.90;;;;;;5000478;28;20269;-84
2022/11/29 08:33:46;;;;;;;61.00;12.83;;;6.80;99.90;;;;;;5029173;28;20186;-86
2022/11/29 08:36:18;;;;;;;49.63;11.73;;;6.70;99.90;;;;;;5021703;28;20217;-85
2022/11/29 08:38:53;;;;;;;32.33;12.47;;;6.60;99.90;;;;;;5028436;28;20166;-85
2022/11/29 08:41:20;;;;;;;44.10;13.13;;;6.40;99.90;;;;;;5020199;28;20177;-86
2022/11/29 08:43:49;;;;;;;34.47;10.93;;;6.40;99.90;;;;;;5014608;28;20158;-84
2022/11/29 08:46:15;;;;;;;36.50;10.80;;;6.30;99.90;;;;;;5031018;28;20249;-85
2022/11/29 08:48:41;;;;;;;33.37;15.70;;;6.40;99.90;;;;;;5036639;28;20174;-85
2022/11/29 08:51:06;;;;;;;39.80;11.90;;;6.30;99.90;;;;;;5039341;28;20155;-85
2022/11/29 08:53:40;;;;;;;36.17;11.87;;;6.20;99.90;;;;;;5038779;28;20234;-85
2022/11/29 08:56:19;;;;;;;37.93;12.17;;;6.20;99.90;;;;;;5035331;28;20142;-84
2022/11/29 08:59:24;;;;;;;41.63;13.50;;;6.10;99.90;;;;;;5030496;28;20170;-85
2022/11/29 09:02:09;;;;;;;37.00;12.60;;;6.30;99.90;;;;;;5023423;28;20625;-85
2022/11/29 09:04:35;;;;;;;35.13;11.50;;;6.20;99.90;;;;;;5022915;28;20187;-86
2022/11/29 09:07:01;;;;;;;35.87;11.20;;;6.20;99.90;;;;;;5021665;28;20293;-85
2022/11/29 09:09:27;;;;;;;33.17;11.70;;;6.20;99.90;;;;;;5018130;28;20622;-87
2022/11/29 09:11:52;;;;;;;26.00;10.20;;;6.10;99.90;;;;;;5002291;28;20193;-85
2022/11/29 09:14:21;;;;;;;60.00;11.80;;;6.10;99.90;;;;;;5000620;28;20178;-84
2022/11/29 09:16:46;;;;;;;38.13;10.93;;;6.30;99.90;;;;;;5019189;28;20167;-87
2022/11/29 09:19:13;;;;;;;48.20;11.00;;;6.20;99.90;;;;;;5000665;28;20196;-87
2022/11/29 09:21:39;;;;;;;54.37;12.30;;;6.00;99.90;;;;;;5000795;28;20229;-85
2022/11/29 09:24:05;;;;;;;25.73;11.53;;;6.00;99.90;;;;;;5017923;28;20189;-86
2022/11/29 09:26:34;;;;;;;51.27;13.20;;;6.10;99.90;;;;;;5019365;28;20229;-81
2022/11/29 09:29:07;;;;;;;38.80;11.57;;;6.10;99.90;;;;;;5018755;28;20170;-86
2022/11/29 09:31:33;;;;;;;31.30;11.43;;;6.10;99.90;;;;;;5004692;28;20178;-84
2022/11/29 09:33:59;;;;;;;33.73;11.93;;;6.20;99.90;;;;;;5004610;28;20635;-83
2022/11/29 09:36:25;;;;;;;38.20;11.77;;;6.40;99.90;;;;;;5015007;28;20192;-84
2022/11/29 09:38:51;;;;;;;38.90;12.17;;;6.30;99.90;;;;;;5016203;28;20177;-85
2022/11/29 09:41:40;;;;;;;24.60;11.90;;;6.40;99.90;;;;;;5000540;28;20245;-84
2022/11/29 09:44:36;;;;;;;31.17;10.90;;;6.40;99.90;;;;;;5018805;28;20166;-85
2022/11/29 09:47:20;;;;;;;28.60;11.50;;;6.60;99.90;;;;;;4997753;28;20178;-87
2022/11/29 09:50:02;;;;;;;36.67;11.37;;;6.60;99.90;;;;;;5014419;28;20186;-85
2022/11/29 09:52:46;;;;;;;73.60;13.03;;;6.80;99.90;;;;;;4996772;28;20236;-85
2022/11/29 09:55:24;;;;;;;25.87;11.73;;;6.80;99.90;;;;;;5014609;28;20631;-85
2022/11/29 09:57:53;;;;;;;54.27;13.10;;;6.90;99.90;;;;;;5014331;28;20170;-85
2022/11/29 10:00:20;;;;;;;45.37;18.30;;;6.90;99.90;;;;;;5014145;28;20182;-83
2022/11/29 10:03:08;;;;;;;52.97;14.10;;;6.90;99.90;;;;;;5014491;28;20217;-82
2022/11/29 10:05:49;;;;;;;32.80;13.23;;;6.90;99.90;;;;;;4995976;28;20213;-83
2022/11/29 10:08:23;;;;;;;38.97;13.00;;;6.90;99.90;;;;;;4996152;28;20178;-83
2022/11/29 10:10:57;;;;;;;32.90;11.63;;;6.90;99.90;;;;;;4996599;28;20273;-84
2022/11/29 10:13:34;;;;;;;33.87;13.27;;;7.20;99.90;;;;;;4997071;28;20593;-84
2022/11/29 10:16:39;;;;;;;41.57;14.27;;;7.30;99.90;;;;;;4996886;28;20604;-86
2022/11/29 10:19:14;;;;;;;32.40;12.97;;;7.40;99.90;;;;;;4984653;28;20189;-84
2022/11/29 10:21:44;;;;;;;25.77;13.27;;;7.40;99.90;;;;;;5013662;28;20169;-80
2022/11/29 10:24:16;;;;;;;29.57;12.43;;;7.40;99.90;;;;;;4996256;28;20166;-83
2022/11/29 10:26:42;;;;;;;30.40;13.63;;;7.40;99.90;;;;;;4999709;28;20214;-82
2022/11/29 10:29:17;;;;;;;28.10;12.23;;;7.50;99.90;;;;;;5015278;28;20622;-82
2022/11/29 10:31:48;;;;;;;48.83;13.97;;;7.40;99.90;;;;;;5001328;28;20216;-81
2022/11/29 10:34:24;;;;;;;40.70;15.27;;;7.70;99.90;;;;;;4990174;28;20182;-83
2022/11/29 10:36:57;;;;;;;51.33;16.27;;;7.50;99.90;;;;;;5012053;28;20181;-84
2022/11/29 10:39:41;;;;;;;37.53;16.03;;;7.40;99.90;;;;;;5030036;28;20155;-84
2022/11/29 10:45:24;;;;;;;25.00;15.87;;;7.40;99.90;;;;;;5027315;28;20224;-86
2022/11/29 10:48:16;;;;;;;30.67;17.13;;;7.70;99.90;;;;;;5031529;28;20177;-85
2022/11/29 10:50:48;;;;;;;29.83;15.87;;;7.50;99.90;;;;;;5015506;28;20174;-85
2022/11/29 10:53:43;;;;;;;33.23;16.77;;;7.40;99.90;;;;;;5013733;28;20198;-84
2022/11/29 10:56:28;;;;;;;27.63;17.00;;;7.40;99.90;;;;;;5031900;28;20205;-85
2022/11/29 10:59:02;;;;;;;31.00;17.23;;;7.40;99.90;;;;;;5029865;28;20194;-84
2022/11/29 11:01:39;;;;;;;22.13;15.13;;;7.40;99.90;;;;;;5031699;28;20182;-84
2022/11/29 11:04:23;;;;;;;30.97;20.03;;;7.50;99.90;;;;;;5033549;28;20368;-85
2022/11/29 11:07:28;;;;;;;29.07;16.13;;;7.60;99.90;;;;;;5039773;28;20190;-84
2022/11/29 11:09:59;;;;;;;24.17;14.27;;;7.50;99.90;;;;;;5023770;28;20193;-85
2022/11/29 11:12:35;;;;;;;20.60;14.70;;;7.50;99.90;;;;;;5038351;28;20202;-83
2022/11/29 11:18:29;;;;;;;29.83;16.13;;;7.70;99.90;;;;;;5022151;28;20166;-84
2022/11/29 11:21:07;;;;;;;22.67;15.60;;;7.70;99.90;;;;;;5006658;28;20242;-86
2022/11/29 11:23:38;;;;;;;26.93;16.87;;;7.70;99.90;;;;;;5020865;28;20250;-84
2022/11/29 11:26:08;;;;;;;26.83;17.47;;;7.70;99.90;;;;;;5005116;28;20216;-85
2022/11/29 11:28:45;;;;;;;27.73;15.63;;;7.90;99.90;;;;;;5006939;28;20276;-86
2022/11/29 11:31:12;;;;;;;24.27;15.17;;;7.90;99.90;;;;;;5025307;28;20249;-84
2022/11/29 11:33:43;;;;;;;21.97;14.30;;;7.80;99.90;;;;;;5022373;28;20171;-85
2022/11/29 11:36:24;;;;;;;21.53;13.47;;;7.60;99.90;;;;;;5024787;28;20205;-84
2022/11/29 11:39:12;;;;;;;18.97;12.77;;;7.50;99.90;;;;;;5022306;28;20230;-86
2022/11/29 11:44:52;;;;;;;21.00;13.63;;;7.60;99.90;;;;;;5005866;28;20205;-85
2022/11/29 11:47:31;;;;;;;23.07;15.10;;;7.50;99.90;;;;;;5022441;28;20189;-84
2022/11/29 11:50:01;;;;;;;25.97;15.03;;;7.60;99.90;;;;;;5007100;28;20193;-85
2022/11/29 11:52:33;;;;;;;22.97;14.80;;;7.70;99.90;;;;;;5005064;28;20170;-85
2022/11/29 11:55:26;;;;;;;21.53;15.00;;;7.60;99.90;;;;;;5022866;28;20198;-85
2022/11/29 11:58:01;;;;;;;20.73;14.47;;;7.60;99.90;;;;;;5001620;28;20182;-85
2022/11/29 12:00:50;;;;;;;18.93;12.60;;;7.70;99.90;;;;;;5019650;28;20177;-84
2022/11/29 12:03:28;;;;;;;20.47;13.23;;;7.60;99.90;;;;;;5000384;28;20178;-85
2022/11/29 12:06:14;;;;;;;24.27;13.93;;;7.60;99.90;;;;;;5020328;28;20210;-85
2022/11/29 12:08:41;;;;;;;26.47;14.20;;;7.60;99.90;;;;;;4996461;28;20170;-86
2022/11/29 12:11:10;;;;;;;24.73;13.93;;;7.70;99.90;;;;;;5002548;28;20185;-85
2022/11/29 12:13:42;;;;;;;24.17;13.47;;;7.70;99.90;;;;;;5019089;28;20174;-84
2022/11/29 12:16:13;;;;;;;27.53;13.40;;;7.70;99.90;;;;;;4985943;28;20215;-86
2022/11/29 12:18:52;;;;;;;22.03;12.70;;;7.70;99.90;;;;;;5000656;28;20170;-81
2022/11/29 12:21:26;;;;;;;20.37;13.00;;;7.70;99.90;;;;;;5033730;28;20166;-82
2022/11/29 12:24:22;;;;;;;16.63;11.77;;;8.00;99.90;;;;;;5005044;28;20588;-85
2022/11/29 12:26:48;;;;;;;17.60;12.40;;;7.90;99.90;;;;;;5003009;28;20214;-82
2022/11/29 12:29:21;;;;;;;22.33;15.90;;;8.00;99.90;;;;;;5020962;28;20179;-84
2022/11/29 12:32:12;;;;;;;20.40;14.60;;;8.00;99.90;;;;;;5001351;28;20177;-86
2022/11/29 12:35:01;;;;;;;16.30;12.13;;;8.00;99.90;;;;;;5010737;28;20179;-86
2022/11/29 12:37:30;;;;;;;14.07;11.20;;;7.90;99.90;;;;;;5018143;28;20186;-82
2022/11/29 12:40:11;;;;;;;13.50;11.67;;;7.80;99.90;;;;;;5018758;28;20209;-83
2022/11/29 12:42:54;;;;;;;15.43;10.53;;;7.90;99.90;;;;;;5019709;28;20174;-82
2022/11/29 12:45:47;;;;;;;18.70;11.23;;;8.00;99.90;;;;;;5025601;28;20186;-82
2022/11/29 12:48:21;;;;;;;13.17;10.00;;;7.90;99.90;;;;;;5009177;28;20166;-82
2022/11/29 12:51:14;;;;;;;14.30;10.10;;;7.90;99.90;;;;;;5000902;28;20170;-82
2022/11/29 12:53:58;;;;;;;12.30;10.47;;;7.90;99.90;;;;;;5005847;28;20201;-81
2022/11/29 12:56:34;;;;;;;15.87;10.47;;;8.00;99.90;;;;;;5004260;28;20182;-80
2022/11/29 12:59:21;;;;;;;18.83;11.77;;;8.10;99.90;;;;;;5021055;28;20178;-81
2022/11/29 13:01:55;;;;;;;16.27;11.27;;;8.10;99.90;;;;;;5018819;28;20170;-81
2022/11/29 13:04:52;;;;;;;19.67;11.10;;;8.10;99.90;;;;;;5014266;28;20177;-82
2022/11/29 13:07:35;;;;;;;14.30;10.17;;;8.10;99.90;;;;;;4993670;28;20644;-82
2022/11/29 13:10:01;;;;;;;16.07;11.63;;;8.00;99.90;;;;;;4996991;28;20654;-80
2022/11/29 13:12:33;;;;;;;16.10;11.73;;;7.90;99.90;;;;;;4980301;28;20175;-82
2022/11/29 13:15:16;;;;;;;15.63;11.10;;;7.90;99.90;;;;;;5006846;28;20182;-81
2022/11/29 13:17:41;;;;;;;16.60;11.70;;;7.70;99.90;;;;;;5001764;28;20178;-81
2022/11/29 13:20:20;;;;;;;16.97;11.87;;;7.80;99.90;;;;;;5001076;28;20171;-82
2022/11/29 13:22:59;;;;;;;16.20;11.87;;;7.90;99.90;;;;;;4999573;28;20167;-82
2022/11/29 13:25:35;;;;;;;18.53;12.23;;;8.00;99.90;;;;;;4998801;28;20733;-84
2022/11/29 13:28:15;;;;;;;17.70;13.00;;;8.20;99.90;;;;;;4991794;28;20190;-85
2022/11/29 13:31:00;;;;;;;18.53;12.73;;;8.20;99.90;;;;;;4993020;28;20209;-85
2022/11/29 13:33:45;;;;;;;20.00;12.73;;;8.20;99.90;;;;;;4992571;28;20183;-85
2022/11/29 13:36:39;;;;;;;17.50;12.77;;;8.10;99.90;;;;;;4992178;28;20289;-84
2022/11/29 13:39:51;;;;;;;16.53;12.13;;;8.00;99.90;;;;;;5010793;28;20163;-85
2022/11/29 13:42:36;;;;;;;17.43;12.70;;;7.90;99.90;;;;;;5011216;28;20227;-84
2022/11/29 13:45:05;;;;;;;17.47;12.70;;;8.00;99.90;;;;;;5017957;28;20194;-85
2022/11/29 13:47:31;;;;;;;17.07;13.33;;;8.10;99.90;;;;;;5018654;28;20158;-83